Home Latest Filings Latest Buys Latest Sells Institutions Derivatives Hot Buys Data Screener Email Alerts Insider Charts
NEE - As of  06/19/19, 03:16:35 PM:   262 Insider Transactions.

Sector: Utilities    Industry: Electric Utilities
Prev Close:$127.33  Avg Vol(3m): 1,860,950  P/E: 21.30  EPS: 5.98

Email this page to a friend.    Institutional Transactions for NEE

                Buy: Blue    Sell: Red
Non-meaningful transactions (gifts, grants, etc.) are automatically filtered out for quicker actions.
Buy(P) /
Sell(S)
P/S date Filed Date Company Symbol Insider Relationship Share Amt. Unit Price Total Proceeds Shares Owned Return(1m) Details
S 2019-06-17 2019-06-18 15:32:09.0 NEXTERA ENERGY INC NEE Kelliher Joseph T officer (EVP, Federal Reg. Affairs) 5,741 $207.26 $1,189,880.00 31,494 view
S 2019-06-06 2019-06-07 12:19:03.0 NEXTERA ENERGY INC NEE ROBO JAMES L director officer other (Chairman, President & CEO) 15,000 $204.86 $3,072,880.00 257,485 view
S 2019-05-20 2019-05-21 15:42:58.0 NEXTERA ENERGY INC NEE Sieving Charles E officer other (EVP & General Counsel) 16,446 $200.08 $3,290,520.00 51,454 view
S 2019-05-15 2019-05-16 13:58:46.0 NEXTERA ENERGY INC NEE ROBO JAMES L director officer other (Chairman, President & CEO) 2,964 $195.63 $579,850.00 272,485 view
S 2019-05-15 2019-05-16 13:58:46.0 NEXTERA ENERGY INC NEE ROBO JAMES L director officer other (Chairman, President & CEO) 41,573 $195.16 $8,113,590.00 275,449 view
S 2019-05-14 2019-05-15 14:16:39.0 NEXTERA ENERGY INC NEE Caplan Deborah H officer (EVP, HR & Corp Services) 500 $194.92 $97,460.00 23,977 view
S 2019-05-14 2019-05-15 14:16:39.0 NEXTERA ENERGY INC NEE Caplan Deborah H officer (EVP, HR & Corp Services) 2,476 $194.34 $481,186.00 24,477 view
S 2019-05-06 2019-05-07 13:54:40.0 NEXTERA ENERGY INC NEE Sieving Charles E officer other (EVP & General Counsel) 5,916 $192.20 $1,137,060.00 51,454 view
S 2019-04-01 2019-04-02 12:04:24.0 NEXTERA ENERGY INC NEE SCHUPP RUDY E director 200 $193.14 $38,628.00 19,010 view
S 2019-04-01 2019-04-02 12:04:24.0 NEXTERA ENERGY INC NEE SCHUPP RUDY E director 1,400 $191.28 $267,798.00 19,210 view
S 2019-03-15 2019-03-18 16:38:10.0 NEXTERA ENERGY INC NEE ROBO JAMES L director officer other (Chairman, President & CEO) 83,882 $191.47 $1.60612E7 272,485 view
S 2019-03-15 2019-03-18 16:38:10.0 NEXTERA ENERGY INC NEE ROBO JAMES L director officer other (Chairman, President & CEO) 27,982 $190.68 $5,335,520.00 356,367 view
S 2019-03-13 2019-03-14 14:39:20.0 NEXTERA ENERGY INC NEE Nazar Manoochehr K officer other (President, Nuclear Div and CNO) 36,807 $189.87 $6,988,540.00 112,227 view
S 2019-03-11 2019-03-12 13:53:42.0 NEXTERA ENERGY INC NEE YEAGER WILLIAM L officer (EVP Eng, Const. & ISC) 5,108 $188.61 $963,420.00 4,184 view
S 2019-03-11 2019-03-12 13:28:45.0 NEXTERA ENERGY INC NEE Arechabala Miguel officer other (EVP, Power Generation Division) 5,448 $188.61 $1,027,550.00 6,348 view
S 2019-03-07 2019-03-08 14:43:28.0 NEXTERA ENERGY INC NEE ROBO JAMES L director officer other (Chairman, President & CEO) 840 $188.73 $158,534.00 271,468 view
S 2019-03-07 2019-03-08 14:43:28.0 NEXTERA ENERGY INC NEE ROBO JAMES L director officer other (Chairman, President & CEO) 14,160 $187.82 $2,659,470.00 272,308 view
S 2019-02-14 2019-02-19 13:01:47.0 NEXTERA ENERGY INC NEE Caplan Deborah H officer (EVP, HR & Corp Services) 100 $184.20 $18,420.00 22,497 view
S 2019-02-14 2019-02-19 13:01:47.0 NEXTERA ENERGY INC NEE Caplan Deborah H officer (EVP, HR & Corp Services) 2,954 $183.47 $541,979.00 22,597 view
S 2019-01-02 2019-01-03 10:14:20.0 NEXTERA ENERGY INC NEE SCHUPP RUDY E director 300 $172.23 $51,669.90 19,700 view
S 2019-01-02 2019-01-03 10:14:20.0 NEXTERA ENERGY INC NEE SCHUPP RUDY E director 100 $170.24 $17,024.00 20,000 view
S 2019-01-02 2019-01-03 10:14:20.0 NEXTERA ENERGY INC NEE SCHUPP RUDY E director 1,200 $169.73 $203,670.00 20,100 view
S 2018-12-06 2018-12-07 16:01:46.0 NEXTERA ENERGY INC NEE ROBO JAMES L director officer other (Chairman, President & CEO) 1,650 $182.92 $301,815.00 225,339 view
S 2018-12-06 2018-12-07 16:01:46.0 NEXTERA ENERGY INC NEE ROBO JAMES L director officer other (Chairman, President & CEO) 3,138 $182.23 $571,822.00 226,989 view
S 2018-12-06 2018-12-07 16:01:46.0 NEXTERA ENERGY INC NEE ROBO JAMES L director officer other (Chairman, President & CEO) 2,685 $181.35 $486,933.00 230,127 view
S 2018-12-06 2018-12-07 16:01:46.0 NEXTERA ENERGY INC NEE ROBO JAMES L director officer other (Chairman, President & CEO) 4,676 $180.17 $842,484.00 232,812 view
S 2018-12-06 2018-12-07 16:01:46.0 NEXTERA ENERGY INC NEE ROBO JAMES L director officer other (Chairman, President & CEO) 5,851 $179.30 $1,049,080.00 237,488 view
S 2018-12-06 2018-12-07 14:22:35.0 NEXTERA ENERGY INC NEE Pimentel Armando Jr other 8,362 $182.60 $1,526,900.00 59,249 view
S 2018-12-06 2018-12-07 14:22:35.0 NEXTERA ENERGY INC NEE Pimentel Armando Jr other 6,279 $181.60 $1,140,260.00 67,611 view
S 2018-12-06 2018-12-07 14:22:35.0 NEXTERA ENERGY INC NEE Pimentel Armando Jr other 6,452 $180.55 $1,164,930.00 73,890 view
S 2018-12-06 2018-12-07 14:22:35.0 NEXTERA ENERGY INC NEE Pimentel Armando Jr other 14,254 $179.52 $2,558,940.00 80,342 view
S 2018-11-19 2018-11-20 13:16:03.0 NEXTERA ENERGY INC NEE Sieving Charles E officer other (EVP & General Counsel) 19,731 $180.10 $3,553,570.00 48,514 view
S 2018-11-06 2018-11-07 15:31:56.0 NEXTERA ENERGY INC NEE Pimentel Armando Jr other 720 $170.59 $122,822.00 59,249 view
S 2018-11-06 2018-11-07 15:31:56.0 NEXTERA ENERGY INC NEE Pimentel Armando Jr other 4,200 $170.03 $714,118.00 59,969 view
S 2018-10-10 2018-10-11 11:02:24.0 NEXTERA ENERGY INC NEE CUTLER PAUL I officer other (Treasurer) 11,016 $175.08 $1,928,690.00 91,275 view
S 2018-10-01 2018-10-02 12:38:58.0 NEXTERA ENERGY INC NEE SCHUPP RUDY E director 1,600 $167.00 $267,206.00 21,300 view
S 2018-09-17 2018-09-18 14:35:54.0 NEXTERA ENERGY INC NEE Kelliher Joseph T officer (EVP, Federal Reg. Affairs) 8,035 $173.30 $1,392,470.00 28,602 view
S 2018-09-17 2018-09-18 14:25:44.0 NEXTERA ENERGY INC NEE CUTLER PAUL I officer other (Treasurer) 7,639 $173.30 $1,323,840.00 91,275 view
S 2018-09-05 2018-09-06 14:11:27.0 NEXTERA ENERGY INC NEE ROBO JAMES L director officer other (Chairman, President & CEO) 6,337 $170.93 $1,083,200.00 243,044 view
S 2018-09-05 2018-09-06 14:11:27.0 NEXTERA ENERGY INC NEE ROBO JAMES L director officer other (Chairman, President & CEO) 11,663 $170.55 $1,989,140.00 249,381 view
S 2018-08-22 2018-08-23 13:08:57.0 NEXTERA ENERGY INC NEE Silagy Eric E other 2,000 $172.79 $345,570.00 25,898 view
S 2018-08-22 2018-08-23 13:08:57.0 NEXTERA ENERGY INC NEE Silagy Eric E other 15,000 $171.80 $2,576,960.00 27,898 view
S 2018-08-07 2018-08-08 11:57:31.0 NEXTERA ENERGY INC NEE Pimentel Armando Jr other 10,734 $170.98 $1,835,300.00 64,169 view
S 2018-06-14 2018-06-15 12:14:57.0 NEXTERA ENERGY INC NEE Pimentel Armando Jr other 2,236 $157.78 $352,803.00 74,903 view
S 2018-06-14 2018-06-15 12:14:57.0 NEXTERA ENERGY INC NEE Pimentel Armando Jr other 6,100 $156.92 $957,218.00 77,139 view
S 2018-06-06 2018-06-07 13:05:21.0 NEXTERA ENERGY INC NEE ROBO JAMES L director officer other (Chairman, President & CEO) 300 $159.30 $47,790.90 260,725 view
S 2018-06-06 2018-06-07 13:05:21.0 NEXTERA ENERGY INC NEE ROBO JAMES L director officer other (Chairman, President & CEO) 1,200 $158.53 $190,231.00 261,025 view
S 2018-06-06 2018-06-07 13:05:21.0 NEXTERA ENERGY INC NEE ROBO JAMES L director officer other (Chairman, President & CEO) 7,588 $157.13 $1,192,310.00 262,225 view
S 2018-06-06 2018-06-07 13:05:21.0 NEXTERA ENERGY INC NEE ROBO JAMES L director officer other (Chairman, President & CEO) 8,912 $156.31 $1,393,030.00 269,813 view
S 2018-05-17 2018-05-18 10:46:56.0 NEXTERA ENERGY INC NEE ROBO JAMES L director officer other (Chairman, President & CEO) 19,437 $157.49 $3,061,190.00 278,725 view
S 2018-05-17 2018-05-18 10:46:56.0 NEXTERA ENERGY INC NEE ROBO JAMES L director officer other (Chairman, President & CEO) 62,052 $156.60 $9,717,340.00 298,162 view
S 2018-05-14 2018-05-15 15:25:57.0 NEXTERA ENERGY INC NEE Silagy Eric E other 11,114 $160.82 $1,787,310.00 25,898 view
S 2018-03-19 2018-03-20 12:27:58.0 NEXTERA ENERGY INC NEE ROBO JAMES L director officer other (Chairman, President & CEO) 1,500 $161.26 $241,886.00 278,725 view
S 2018-03-19 2018-03-20 12:27:58.0 NEXTERA ENERGY INC NEE ROBO JAMES L director officer other (Chairman, President & CEO) 16,500 $160.86 $2,654,190.00 280,225 view
S 2018-03-15 2018-03-16 14:37:25.0 NEXTERA ENERGY INC NEE YEAGER WILLIAM L officer (EVP Eng, Const. & ISC) 5,133 $157.74 $809,690.00 5,050 view
S 2018-03-15 2018-03-16 14:26:47.0 NEXTERA ENERGY INC NEE Nazar Manoochehr K officer other (President, Nuclear Div and CNO) 508 $158.25 $80,392.00 115,371 view
S 2018-03-15 2018-03-16 14:26:47.0 NEXTERA ENERGY INC NEE Nazar Manoochehr K officer other (President, Nuclear Div and CNO) 12,660 $157.77 $1,997,380.00 115,879 view
S 2018-03-15 2018-03-16 14:19:44.0 NEXTERA ENERGY INC NEE Arechabala Miguel officer other (EVP, Power Generation Division) 5,093 $157.80 $803,691.00 8,659 view
S 2018-02-26 2018-02-27 16:16:40.0 NEXTERA ENERGY INC NEE Nazar Manoochehr K officer other (President, Nuclear Div and CNO) 200 $156.08 $31,216.00 128,539 view
S 2018-02-26 2018-02-27 16:16:40.0 NEXTERA ENERGY INC NEE Nazar Manoochehr K officer other (President, Nuclear Div and CNO) 13,690 $155.63 $2,130,620.00 128,739 view
S 2018-02-16 2018-02-20 18:49:02.0 NEXTERA ENERGY INC NEE Sieving Charles E officer other (EVP & General Counsel) 2,844 $154.67 $439,881.00 53,442 view
S 2018-02-06 2018-02-07 15:14:12.0 NEXTERA ENERGY INC NEE Pimentel Armando Jr other 9,250 $151.83 $1,404,430.00 70,336 view
S 2017-12-06 2017-12-07 11:46:44.0 NEXTERA ENERGY INC NEE Pimentel Armando Jr other 600 $158.14 $94,884.00 79,586 view
S 2017-12-06 2017-12-07 11:46:44.0 NEXTERA ENERGY INC NEE Pimentel Armando Jr other 30,722 $157.73 $4,845,690.00 80,186 view
S 2017-12-06 2017-12-07 11:46:44.0 NEXTERA ENERGY INC NEE Pimentel Armando Jr other 11,050 $156.66 $1,731,060.00 110,908 view
S 2017-11-02 2017-11-03 12:21:28.0 NEXTERA ENERGY INC NEE ROBO JAMES L director officer other (Chairman, President & CEO) 4,698 $154.43 $725,493.00 270,424 view
S 2017-11-02 2017-11-03 12:21:28.0 NEXTERA ENERGY INC NEE ROBO JAMES L director officer other (Chairman, President & CEO) 7,025 $153.69 $1,079,680.00 275,122 view
S 2017-11-02 2017-11-03 12:21:28.0 NEXTERA ENERGY INC NEE ROBO JAMES L director officer other (Chairman, President & CEO) 500 $152.76 $76,379.00 282,147 view
S 2017-11-02 2017-11-03 12:21:28.0 NEXTERA ENERGY INC NEE ROBO JAMES L director officer other (Chairman, President & CEO) 3,542 $150.92 $534,555.00 282,647 view
S 2017-11-02 2017-11-03 12:21:28.0 NEXTERA ENERGY INC NEE ROBO JAMES L director officer other (Chairman, President & CEO) 9,035 $149.93 $1,354,580.00 286,189 view
S 2017-11-02 2017-11-03 12:21:28.0 NEXTERA ENERGY INC NEE ROBO JAMES L director officer other (Chairman, President & CEO) 5,200 $149.01 $774,878.00 295,224 view
S 2017-10-11 2017-10-12 11:46:19.0 NEXTERA ENERGY INC NEE Kelliher Joseph T officer (EVP, Federal Reg. Affairs) 2,000 $150.00 $300,000.00 28,566 view
S 2017-09-22 2017-09-25 12:53:10.0 NEXTERA ENERGY INC NEE Sieving Charles E officer other (EVP & General Counsel) 30,485 $146.56 $4,467,760.00 47,682 view
S 2017-09-18 2017-09-19 13:53:12.0 NEXTERA ENERGY INC NEE KETCHUM JOHN W officer (EVP, Finance & CFO) 2,900 $150.00 $435,000.00 18,786 view
S 2017-08-03 2017-08-04 14:38:52.0 NEXTERA ENERGY INC NEE ROBO JAMES L director officer other (Chairman, President & CEO) 2,400 $147.40 $353,758.00 300,129 view
S 2017-08-03 2017-08-04 14:38:52.0 NEXTERA ENERGY INC NEE ROBO JAMES L director officer other (Chairman, President & CEO) 27,600 $147.02 $4,057,720.00 302,529 view
S 2017-05-30 2017-05-31 12:28:07.0 NEXTERA ENERGY INC NEE Silagy Eric E other 8,111 $140.58 $1,140,280.00 26,884 N/A view
S 2017-05-18 2017-05-19 14:32:29.0 NEXTERA ENERGY INC NEE ROBO JAMES L director officer other (Chairman, President & CEO 14,620 $137.27 $2,006,950.00 329,819 N/A view
S 2017-05-18 2017-05-19 14:32:29.0 NEXTERA ENERGY INC NEE ROBO JAMES L director officer other (Chairman, President & CEO 37,700 $136.17 $5,133,500.00 344,439 N/A view
S 2017-05-04 2017-05-05 14:40:22.0 NEXTERA ENERGY INC NEE Pimentel Armando Jr other 5,680 $133.11 $756,065.00 79,586 N/A view
S 2017-04-17 2017-04-18 17:27:34.0 NEXTERA ENERGY INC NEE Kelliher Joseph T officer (EVP, Federal Reg. Affairs) 8,068 $130.67 $1,054,250.00 30,566 N/A view
S 2017-03-16 2017-03-17 16:08:42.0 NEXTERA ENERGY INC NEE YEAGER WILLIAM L officer (EVP Eng, Const. & ISC) 5,793 $131.40 $761,197.00 5,835 N/A view
S 2017-03-16 2017-03-17 15:53:28.0 NEXTERA ENERGY INC NEE Nazar Manoochehr K officer other (President, Nuclear Div and CNO) 300 $131.44 $39,433.00 114,421 N/A view
S 2017-03-16 2017-03-17 15:53:28.0 NEXTERA ENERGY INC NEE Nazar Manoochehr K officer other (President, Nuclear Div and CNO) 23,374 $130.85 $3,058,580.00 114,721 N/A view
S 2017-03-16 2017-03-17 15:41:20.0 NEXTERA ENERGY INC NEE Arechabala Miguel officer other (EVP, Power Generation Division) 4,458 $131.22 $584,971.00 10,844 N/A view
P 2017-02-24 2017-02-27 16:18:18.0 NEXTERA ENERGY INC NEE SWANSON WILLIAM H director 3,860 $128.86 $497,415.00 25,180 N/A view
S 2017-02-02 2017-02-03 17:25:17.0 NEXTERA ENERGY INC NEE ROBO JAMES L director officer other (Chairman, President & CEO 30,000 $122.60 $3,678,060.00 315,226 N/A view
P 2016-12-05 2016-12-06 12:59:36.0 NEXTERA ENERGY INC NEE SKOLDS JOHN L director 800 $114.96 $91,966.60 7,144 N/A view
S 2016-11-07 2016-11-08 16:44:35.0 NEXTERA ENERGY INC NEE Sieving Charles E officer other (EVP & General Counsel) 22,927 $123.53 $2,832,060.00 47,189 N/A view
S 2016-11-07 2016-11-08 16:44:35.0 NEXTERA ENERGY INC NEE Sieving Charles E officer other (EVP & General Counsel) 2,000 $123.80 $247,600.00 47,189 N/A view
S 2016-11-03 2016-11-04 15:34:03.0 NEXTERA ENERGY INC NEE Pimentel Armando Jr other 5,022 $123.70 $621,221.00 72,165 N/A view
P 2016-11-02 2016-11-02 18:26:44.0 NEXTERA ENERGY INC NEE LANE AMY B director 1,000 $122.90 $122,900.00 4,510 N/A view
S 2016-07-29 2016-08-01 11:54:12.0 NEXTERA ENERGY INC NEE FROGGATT CHRIS N officer (VP, Controller and CAO) 3,309 $127.61 $422,262.00 19,168 N/A view
S 2016-07-29 2016-08-01 11:54:12.0 NEXTERA ENERGY INC NEE FROGGATT CHRIS N officer (VP, Controller and CAO) 4,237 $127.61 $540,684.00 19,168 N/A view
S 2016-07-29 2016-08-01 11:54:12.0 NEXTERA ENERGY INC NEE FROGGATT CHRIS N officer (VP, Controller and CAO) 704 $127.61 $89,837.40 19,168 N/A view
S 2016-07-29 2016-08-01 11:54:12.0 NEXTERA ENERGY INC NEE FROGGATT CHRIS N officer (VP, Controller and CAO) 1,332 $127.61 $169,977.00 19,168 N/A view
S 2016-07-29 2016-08-01 11:54:12.0 NEXTERA ENERGY INC NEE FROGGATT CHRIS N officer (VP, Controller and CAO) 3,137 $127.61 $400,313.00 19,168 N/A view
S 2016-07-29 2016-08-01 11:54:12.0 NEXTERA ENERGY INC NEE FROGGATT CHRIS N officer (VP, Controller and CAO) 3,748 $127.61 $478,282.00 19,168 N/A view
S* 2016-06-30 2016-07-01 09:45:51.0 NEXTERA ENERGY INC NEE CUTLER PAUL I officer other (Treasurer) 4,796 $130.00 $623,480.00 65,181 N/A view
S* 2016-06-15 2016-06-16 12:38:22.0 NEXTERA ENERGY INC NEE Kelliher Joseph T officer (EVP, Federal Reg. Affairs) 11,697 $124.31 $1,454,020.00 27,819 N/A view
S* 2016-06-13 2016-06-14 11:53:31.0 NEXTERA ENERGY INC NEE Silagy Eric E other 5,000 $123.77 $618,830.00 26,641 N/A view
S 2016-05-24 2016-05-25 15:41:47.0 NEXTERA ENERGY INC NEE CUTLER PAUL I officer other (Treasurer) 4,903 $120.00 $588,360.00 65,181 N/A view
S 2016-05-19 2016-05-20 10:29:05.0 NEXTERA ENERGY INC NEE ROBO JAMES L director officer other (Chairman, President & CEO 8,400 $117.61 $987,966.00 344,284 N/A view
S 2016-05-19 2016-05-20 10:29:05.0 NEXTERA ENERGY INC NEE ROBO JAMES L director officer other (Chairman, President & CEO 35,373 $117.19 $4,145,430.00 352,684 N/A view
S 2016-03-21 2016-03-22 14:25:55.0 NEXTERA ENERGY INC NEE Pimentel Armando Jr other 4,000 $117.87 $471,480.00 77,187 N/A view
S 2016-03-17 2016-03-18 11:29:05.0 NEXTERA ENERGY INC NEE YEAGER WILLIAM L officer (EVP Eng, Const. & ISC) 5,318 $116.84 $621,366.00 7,637 N/A view
S 2016-03-17 2016-03-18 11:14:06.0 NEXTERA ENERGY INC NEE Nazar Manoochehr K officer other (President, Nuclear Div and CNO) 13,634 $117.85 $1,606,730.00 125,018 N/A view
S 2016-03-17 2016-03-18 11:14:06.0 NEXTERA ENERGY INC NEE Nazar Manoochehr K officer other (President, Nuclear Div and CNO) 9,940 $117.15 $1,164,470.00 138,652 N/A view
S 2016-03-17 2016-03-18 11:14:06.0 NEXTERA ENERGY INC NEE Arechabala Miguel officer other (EVP, Power Generation Division) 4,000 $116.85 $467,384.00 12,651 N/A view
S 2016-02-03 2016-02-04 11:11:16.0 NEXTERA ENERGY INC NEE CUTLER PAUL I officer other (Treasurer) 7,000 $114.13 $798,910.00 59,172 N/A view
S 2016-02-01 2016-02-02 13:40:55.0 NEXTERA ENERGY INC NEE Sieving Charles E officer other (EVP & General Counsel) 4,109 $113.02 $464,412.00 36,644 N/A view
S 2016-01-29 2016-02-01 18:13:04.0 NEXTERA ENERGY INC NEE CUTLER PAUL I officer other (Treasurer) 12,175 $110.05 $1,339,820.00 59,172 N/A view
S 2016-01-29 2016-02-01 18:01:22.0 NEXTERA ENERGY INC NEE Sieving Charles E officer other (EVP & General Counsel) 4,110 $110.04 $452,273.00 40,753 N/A view
S 2015-12-17 2015-12-18 08:25:15.0 NEXTERA ENERGY INC NEE Silagy Eric E other 5,000 $104.00 $520,000.00 20,807 N/A view
P 2015-12-03 2015-12-04 11:13:47.0 NEXTERA ENERGY INC NEE Gursahaney Naren K director 1,000 $96.57 $96,573.80 2,900 N/A view
S 2015-11-11 2015-11-12 11:44:40.0 NEXTERA ENERGY INC NEE DEWHURST MORAY P officer (Vice Chairman & CFO) 1,028 $99.09 $101,865.00 329,446 N/A view
S 2015-11-10 2015-11-12 11:44:40.0 NEXTERA ENERGY INC NEE DEWHURST MORAY P officer (Vice Chairman & CFO) 5,000 $98.88 $494,400.00 329,446 N/A view
S 2015-11-05 2015-11-06 10:59:04.0 NEXTERA ENERGY INC NEE DEWHURST MORAY P officer (Vice Chairman & CFO) 5,000 $103.04 $515,200.00 329,446 N/A view
S 2015-11-04 2015-11-05 11:24:08.0 NEXTERA ENERGY INC NEE DEWHURST MORAY P officer (Vice Chairman & CFO) 5,000 $102.32 $511,600.00 329,446 N/A view
S 2015-11-03 2015-11-04 12:14:48.0 NEXTERA ENERGY INC NEE DEWHURST MORAY P officer (Vice Chairman & CFO) 5,000 $101.75 $508,750.00 329,446 N/A view
S 2015-09-14 2015-09-15 16:47:18.0 NEXTERA ENERGY INC NEE Pimentel Armando Jr other 4,503 $95.86 $431,658.00 62,086 N/A view
P 2015-09-04 2015-09-08 17:08:46.0 NEXTERA ENERGY INC NEE Dunn Kenneth B director 1,000 $94.05 $94,050.00 13,010 N/A view
P 2015-09-02 2015-09-03 17:00:03.0 NEXTERA ENERGY INC NEE Dunn Kenneth B director 1,000 $94.55 $94,550.00 12,010 N/A view
P 2015-09-01 2015-09-02 13:59:02.0 NEXTERA ENERGY INC NEE Dunn Kenneth B director 2,000 $95.30 $190,600.00 11,010 N/A view
S 2015-08-14 2015-08-17 10:32:57.0 NEXTERA ENERGY INC NEE Pimentel Armando Jr other 310 $108.94 $33,770.20 66,589 N/A view
S 2015-08-14 2015-08-17 10:32:57.0 NEXTERA ENERGY INC NEE Pimentel Armando Jr other 26,912 $108.34 $2,915,730.00 66,899 N/A view
S 2015-08-14 2015-08-17 10:32:57.0 NEXTERA ENERGY INC NEE Pimentel Armando Jr other 17,440 $108.22 $1,887,410.00 66,589 N/A view
S 2015-08-12 2015-08-13 10:44:04.0 NEXTERA ENERGY INC NEE DEWHURST MORAY P officer (Vice Chairman & CFO) 5,000 $106.35 $531,750.00 329,196 N/A view
S 2015-08-11 2015-08-12 10:51:17.0 NEXTERA ENERGY INC NEE DEWHURST MORAY P officer (Vice Chairman & CFO) 5,000 $106.67 $533,350.00 329,196 N/A view
S 2015-08-06 2015-08-07 09:38:58.0 NEXTERA ENERGY INC NEE DEWHURST MORAY P officer (Vice Chairman & CFO) 5,000 $105.68 $528,425.00 329,196 N/A view
S 2015-08-05 2015-08-06 11:14:03.0 NEXTERA ENERGY INC NEE DEWHURST MORAY P officer (Vice Chairman & CFO) 5,000 $106.71 $533,575.00 329,196 N/A view
S 2015-08-04 2015-08-05 12:33:32.0 NEXTERA ENERGY INC NEE DEWHURST MORAY P officer (Vice Chairman & CFO) 1,000 $107.73 $107,729.00 329,196 N/A view
S 2015-08-04 2015-08-05 12:33:31.0 NEXTERA ENERGY INC NEE DEWHURST MORAY P officer (Vice Chairman & CFO) 4,000 $106.88 $427,500.00 330,196 N/A view
S 2015-07-10 2015-07-13 11:30:00.0 NEXTERA ENERGY INC NEE ROBO JAMES L director officer other (Chairman, President & CEO 44,900 $101.94 $4,577,060.00 269,066 N/A view
S 2015-07-10 2015-07-13 11:30:00.0 NEXTERA ENERGY INC NEE ROBO JAMES L director officer other (Chairman, President & CEO 5,100 $101.26 $516,441.00 313,966 N/A view
S 2015-03-17 2015-03-18 14:35:10.0 NEXTERA ENERGY INC NEE Nazar Manoochehr K officer other (President, Nuclear Div and CNO) 500 $103.94 $51,970.00 128,813 0.76% view
S 2015-03-17 2015-03-18 14:35:10.0 NEXTERA ENERGY INC NEE Nazar Manoochehr K officer other (President, Nuclear Div and CNO) 19,318 $103.15 $1,992,590.00 129,313 -0.00% view
S 2015-03-17 2015-03-18 14:35:10.0 NEXTERA ENERGY INC NEE Nazar Manoochehr K officer other (President, Nuclear Div and CNO) 9,000 $102.89 $926,037.00 148,631 -0.25% view
S 2015-03-16 2015-03-17 14:08:57.0 NEXTERA ENERGY INC NEE Kelliher Joseph T officer (EVP, Federal Reg. Affairs) 10,226 $101.88 $1,041,850.00 23,516 -1.84% view
S 2015-03-16 2015-03-17 14:08:57.0 NEXTERA ENERGY INC NEE Kelliher Joseph T officer (EVP, Federal Reg. Affairs) 10,026 $101.87 $1,021,380.00 23,516 -1.85% view
S 2015-03-13 2015-03-16 15:16:24.0 NEXTERA ENERGY INC NEE YEAGER WILLIAM L officer (EVP Eng, Const. & ISC) 3,000 $100.50 $301,500.00 6,619 -3.23% view
S 2015-03-13 2015-03-16 15:01:38.0 NEXTERA ENERGY INC NEE Arechabala Miguel officer other (EVP, Power Generation Division) 4,000 $100.27 $401,076.00 11,325 -3.47% view
S 2015-03-13 2015-03-16 14:48:42.0 NEXTERA ENERGY INC NEE Pimentel Armando Jr other 4,000 $100.50 $402,000.00 66,589 -3.23% view
P 2015-02-24 2015-02-25 14:44:09.0 NEXTERA ENERGY INC NEE LANE AMY B director 940 $106.36 $99,977.40 2,250 -1.43% view
S 2015-01-06 2015-01-07 11:58:36.0 NEXTERA ENERGY INC NEE Silagy Eric E other 6,000 $105.90 $635,430.00 16,907 0.10% view
S 2014-12-15 2014-12-16 13:56:10.0 NEXTERA ENERGY INC NEE CUTLER PAUL I officer other (Treasurer) 8,000 $101.54 $812,320.00 66,151 -5.42% view
S 2014-11-13 2014-11-14 10:08:54.0 NEXTERA ENERGY INC NEE DEWHURST MORAY P officer (Vice Chairman & CFO) 5,000 $103.18 $515,900.00 312,465 2.30% view
S 2014-11-12 2014-11-13 11:29:04.0 NEXTERA ENERGY INC NEE DEWHURST MORAY P officer (Vice Chairman & CFO) 5,000 $103.01 $515,050.00 312,465 2.14% view
S 2014-11-10 2014-11-12 11:29:03.0 NEXTERA ENERGY INC NEE Sieving Charles E officer other (EVP & General Counsel) 13,600 $105.06 $1,428,750.00 34,764 3.44% view
S 2014-11-10 2014-11-12 11:29:03.0 NEXTERA ENERGY INC NEE Sieving Charles E officer other (EVP & General Counsel) 5,001 $104.55 $522,865.00 48,364 2.98% view
S 2014-11-11 2014-11-12 10:33:10.0 NEXTERA ENERGY INC NEE DEWHURST MORAY P officer (Vice Chairman & CFO) 5,000 $105.51 $527,550.00 312,465 2.87% view
S 2014-11-06 2014-11-07 13:29:02.0 NEXTERA ENERGY INC NEE DEWHURST MORAY P officer (Vice Chairman & CFO) 5,000 $104.52 $522,600.00 312,465 1.52% view
S 2014-11-05 2014-11-06 11:59:03.0 NEXTERA ENERGY INC NEE DEWHURST MORAY P officer (Vice Chairman & CFO) 5,000 $103.27 $516,350.00 312,465 0.33% view
S 2014-11-05 2014-11-06 11:27:11.0 NEXTERA ENERGY INC NEE Caplan Deborah H officer (EVP, HR & Corp Services) 1,253 $103.27 $129,397.00 11,060 0.33% view
S 2014-11-05 2014-11-06 11:09:41.0 NEXTERA ENERGY INC NEE FROGGATT CHRIS N officer (VP, Controller and CAO) 2,086 $105.00 $219,030.00 9,792 1.97% view
S 2014-11-05 2014-11-06 11:09:41.0 NEXTERA ENERGY INC NEE FROGGATT CHRIS N officer (VP, Controller and CAO) 7,725 $103.27 $797,761.00 11,878 0.33% view
S 2014-11-04 2014-11-05 16:05:59.0 NEXTERA ENERGY INC NEE DEWHURST MORAY P officer (Vice Chairman & CFO) 5,000 $100.95 $504,750.00 312,465 -2.52% view
S 2014-11-03 2014-11-04 14:10:01.0 NEXTERA ENERGY INC NEE YEAGER WILLIAM L officer (EVP Eng, Const. & ISC) 4,000 $99.99 $399,940.00 4,660 -4.41% view
S 2014-08-11 2014-08-12 12:14:03.0 NEXTERA ENERGY INC NEE DEWHURST MORAY P officer (Vice Chairman & CFO) 10,000 $95.47 $954,700.00 312,232 -0.71% view
S 2014-08-04 2014-08-05 12:14:03.0 NEXTERA ENERGY INC NEE DEWHURST MORAY P officer (Vice Chairman & CFO) 2,400 $93.49 $224,381.00 312,232 -4.00% view
S 2014-08-04 2014-08-05 12:14:03.0 NEXTERA ENERGY INC NEE DEWHURST MORAY P officer (Vice Chairman & CFO) 12,600 $92.23 $1,162,100.00 314,632 -5.42% view
S 2014-07-30 2014-07-31 15:29:02.0 NEXTERA ENERGY INC NEE DEWHURST MORAY P officer (Vice Chairman & CFO) 5,000 $98.16 $490,800.00 312,232 -0.30% view
S 2014-06-03 2014-06-04 10:03:09.0 NEXTERA ENERGY INC NEE Pimentel Armando Jr other 4,779 $97.17 $464,375.00 56,709 -1.08% view
S 2014-03-17 2014-03-18 10:52:17.0 NEXTERA ENERGY INC NEE YEAGER WILLIAM L officer (EVP Eng, Const. & ISC) 4,000 $94.84 $379,372.00 8,660 -1.84% view
S 2014-03-03 2014-03-05 10:16:25.0 NEXTERA ENERGY INC NEE ROBO JAMES L director officer (Chairman, President & CEO) 38,920 $90.49 $3,521,870.00 159,634 -4.54% view
S 2014-02-27 2014-02-28 10:12:26.0 NEXTERA ENERGY INC NEE Caplan Deborah H officer (EVP, HR & Corp Services) 2,253 $90.45 $203,784.00 12,342 -4.60% view
S 2013-12-09 2013-12-10 10:23:02.0 NEXTERA ENERGY INC NEE Pimentel Armando Jr other 4,992 $84.31 $420,876.00 49,383 -2.03% view
S 2013-11-11 2013-11-12 10:50:44.0 NEXTERA ENERGY INC NEE Sieving Charles E officer other (EVP & General Counsel) 12,346 $86.81 $1,071,740.00 26,545 5.08% view
S 2013-11-11 2013-11-12 10:50:44.0 NEXTERA ENERGY INC NEE Sieving Charles E officer other (EVP & General Counsel) 12,000 $86.83 $1,042,000.00 26,545 5.11% view
S 2013-09-16 2013-09-17 12:04:57.0 NEXTERA ENERGY INC NEE Kelliher Joseph T officer (EVP, Federal Reg. Affairs) 12,966 $80.15 $1,039,170.00 16,616 -1.70% view
S 2013-08-15 2013-08-16 09:58:46.0 NEXTERA ENERGY INC NEE Sieving Charles E officer other (EVP & General Counsel) 20,338 $83.52 $1,698,610.00 38,545 5.15% view
S 2013-08-15 2013-08-16 09:35:17.0 NEXTERA ENERGY INC NEE FROGGATT CHRIS N officer (VP, Controller and CAO) 4,698 $83.17 $390,709.00 14,774 4.74% view
S 2013-06-14 2013-06-17 09:40:45.0 NEXTERA ENERGY INC NEE Silagy Eric E other 4,000 $79.18 $316,720.00 17,261 -6.10% view
S 2013-05-14 2013-05-16 10:32:21.0 NEXTERA ENERGY INC NEE Caplan Deborah H officer (EVP, HR & Corp Services) 5,371 $79.92 $429,272.00 11,579 0.24% view
S 2013-03-22 2013-03-25 10:00:00.0 NEXTERA ENERGY INC NEE YEAGER WILLIAM L officer (EVP Eng, Const. & ISC) 3,500 $75.64 $264,740.00 8,152 -5.65% view
S 2013-03-15 2013-03-18 11:23:08.0 NEXTERA ENERGY INC NEE HAY LEWIS III director officer other (Exec Chairman) 60,000 $74.37 $4,461,960.00 54,999 -6.16% view
S 2013-03-11 2013-03-12 13:30:28.0 NEXTERA ENERGY INC NEE RODRIGUEZ ANTONIO officer other (EVP-Power Generation) 12,000 $74.13 $889,608.00 25,533 -7.70% view
S 2013-03-08 2013-03-11 09:45:23.0 NEXTERA ENERGY INC NEE Pimentel Armando Jr other 7,500 $73.96 $554,738.00 54,375 -8.08% view
S 2012-12-19 2012-12-20 10:08:29.0 NEXTERA ENERGY INC NEE CUTLER PAUL I officer other (Treasurer) 10,000 $70.36 $703,560.00 52,961 -1.70% view
S 2012-12-19 2012-12-20 10:08:29.0 NEXTERA ENERGY INC NEE CUTLER PAUL I officer other (Treasurer) 12,000 $70.51 $846,108.00 52,961 -1.48% view
S 2012-11-29 2012-11-30 09:49:17.0 NEXTERA ENERGY INC NEE RODRIGUEZ ANTONIO officer other (EVP-Power Generation) 17,000 $68.01 $1,156,140.00 26,419 -0.36% view
S 2012-11-29 2012-11-30 09:49:17.0 NEXTERA ENERGY INC NEE RODRIGUEZ ANTONIO officer other (EVP-Power Generation) 20,000 $68.02 $1,360,320.00 26,419 -0.34% view
S 2012-11-29 2012-11-30 09:49:17.0 NEXTERA ENERGY INC NEE RODRIGUEZ ANTONIO officer other (EVP-Power Generation) 40,000 $68.02 $2,720,720.00 26,419 -0.34% view
S 2012-11-27 2012-11-28 10:27:31.0 NEXTERA ENERGY INC NEE Silagy Eric E other 4,000 $68.02 $272,080.00 15,336 -1.75% view
S 2012-11-01 2012-11-05 11:27:49.0 NEXTERA ENERGY INC NEE ROBO JAMES L director officer other (President & CEO) 66,232 $69.86 $4,626,840.00 83,611 1.64% view
S 2012-10-31 2012-11-01 12:07:07.0 NEXTERA ENERGY INC NEE HAY LEWIS III director officer other (Exec Chairman) 150,000 $70.07 $1.0511E7 321,727 1.95% view
P 2012-10-26 2012-10-29 09:52:24.0 NEXTERA ENERGY INC NEE SWANSON WILLIAM H director 7,195 $69.53 $500,235.00 14,400 -2.25% view
S 2012-10-25 2012-10-26 10:13:44.0 NEXTERA ENERGY INC NEE MCGRATH ROBERT L officer other (EVP Eng, Const. & Corp Svs) 3,221 $69.61 $224,214.00 28,739 3.46% view
S 2012-10-05 2012-10-09 10:53:26.0 NEXTERA ENERGY INC NEE MCGRATH ROBERT L officer other (EVP Eng, Const. & Corp Svs) 13,904 $71.01 $987,323.00 31,960 1.97% view
S 2012-10-05 2012-10-09 10:53:26.0 NEXTERA ENERGY INC NEE MCGRATH ROBERT L officer other (EVP Eng, Const. & Corp Svs) 14,895 $71.05 $1,058,250.00 31,960 2.02% view
S 2012-10-05 2012-10-09 10:53:26.0 NEXTERA ENERGY INC NEE MCGRATH ROBERT L officer other (EVP Eng, Const. & Corp Svs) 9,807 $70.98 $696,120.00 31,960 1.93% view
S 2012-10-05 2012-10-09 10:53:26.0 NEXTERA ENERGY INC NEE MCGRATH ROBERT L officer other (EVP Eng, Const. & Corp Svs) 13,500 $71.03 $958,892.00 31,960 2.00% view
S 2012-09-04 2012-09-05 11:35:43.0 NEXTERA ENERGY INC NEE HAY LEWIS III director officer other (Exec Chairman) 40,000 $67.18 $2,687,320.00 114,999 -5.80% view
S 2012-09-04 2012-09-05 11:35:43.0 NEXTERA ENERGY INC NEE HAY LEWIS III director officer other (Exec Chairman) 20,000 $67.19 $1,343,700.00 143,416 -5.80% view
S 2012-09-04 2012-09-05 11:35:43.0 NEXTERA ENERGY INC NEE HAY LEWIS III director officer other (Exec Chairman) 150,000 $67.16 $1.00743E7 321,727 -5.83% view
S 2012-08-20 2012-08-21 10:02:09.0 NEXTERA ENERGY INC NEE DEWHURST MORAY P officer (Vice Chairman & CFO) 25,000 $69.12 $1,727,980.00 254,448 1.55% view
S 2012-08-20 2012-08-21 10:02:09.0 NEXTERA ENERGY INC NEE DEWHURST MORAY P officer (Vice Chairman & CFO) 25,000 $68.95 $1,723,750.00 254,448 1.31% view
S 2012-08-20 2012-08-21 10:02:09.0 NEXTERA ENERGY INC NEE DEWHURST MORAY P officer (Vice Chairman & CFO) 25,000 $68.82 $1,720,420.00 254,448 1.11% view
S 2012-08-20 2012-08-21 10:02:09.0 NEXTERA ENERGY INC NEE DEWHURST MORAY P officer (Vice Chairman & CFO) 25,000 $68.90 $1,722,480.00 254,448 1.23% view
S 2012-08-01 2012-08-02 10:40:25.0 NEXTERA ENERGY INC NEE DEWHURST MORAY P officer (Vice Chairman & CFO) 25,000 $70.98 $1,774,420.00 254,448 5.17% view
S 2012-08-01 2012-08-02 10:40:25.0 NEXTERA ENERGY INC NEE DEWHURST MORAY P officer (Vice Chairman & CFO) 7,000 $72.00 $504,000.00 254,448 6.51% view
S 2012-08-01 2012-08-02 10:40:25.0 NEXTERA ENERGY INC NEE DEWHURST MORAY P officer (Vice Chairman & CFO) 18,000 $71.42 $1,285,560.00 261,448 5.75% view
S 2012-08-01 2012-08-02 10:40:25.0 NEXTERA ENERGY INC NEE DEWHURST MORAY P officer (Vice Chairman & CFO) 25,000 $71.04 $1,775,980.00 254,448 5.25% view
S 2012-08-01 2012-08-02 10:40:25.0 NEXTERA ENERGY INC NEE DEWHURST MORAY P officer (Vice Chairman & CFO) 25,000 $71.10 $1,777,520.00 254,448 5.33% view
S 2012-06-14 2012-06-15 10:34:22.0 NEXTERA ENERGY INC NEE RODRIGUEZ ANTONIO officer other (EVP-Power Generation) 7,000 $67.34 $471,395.00 0 -2.95% view
S 2012-06-14 2012-06-15 10:34:22.0 NEXTERA ENERGY INC NEE RODRIGUEZ ANTONIO officer other (EVP-Power Generation) 4,000 $67.33 $269,303.00 26,419 -2.98% view
S 2012-03-15 2012-03-19 12:28:13.0 NEXTERA ENERGY INC NEE ROBO JAMES L officer other (President & COO) 65,959 $60.08 $3,963,010.00 140,239 -3.32% view
S 2012-03-15 2012-03-19 12:28:13.0 NEXTERA ENERGY INC NEE ROBO JAMES L officer other (President & COO) 8,000 $60.02 $480,146.00 140,239 -3.44% view
S 2012-03-15 2012-03-19 11:52:11.0 NEXTERA ENERGY INC NEE RODRIGUEZ ANTONIO officer other (EVP-Power Generation) 10,000 $60.00 $599,970.00 30,419 -3.47% view
S 2012-03-08 2012-03-09 09:24:47.0 NEXTERA ENERGY INC NEE Pimentel Armando Jr other 7,500 $59.91 $449,340.00 56,861 -4.95% view
S 2012-02-27 2012-02-28 10:10:47.0 NEXTERA ENERGY INC NEE CUTLER PAUL I officer other (Treasurer) 12,000 $60.64 $727,644.00 52,961 -0.53% view
S 2011-12-23 2011-12-27 09:52:02.0 NEXTERA ENERGY INC NEE RODRIGUEZ ANTONIO officer other (EVP-Power Generation) 13,820 $60.00 $829,200.00 26,649 1.07% view
S 2011-12-16 2011-12-19 09:30:07.0 NEXTERA ENERGY INC NEE MCGRATH ROBERT L officer other (EVP Eng, Const. & Corp Svs) 8,924 $58.09 $518,377.00 22,022 -1.78% view
S 2011-12-15 2011-12-16 14:39:46.0 NEXTERA ENERGY INC NEE RODRIGUEZ ANTONIO officer other (EVP-Power Generation) 6,054 $57.85 $350,224.00 26,649 -2.20% view
S 2011-12-15 2011-12-16 14:27:16.0 NEXTERA ENERGY INC NEE ROBO JAMES L officer other (President & COO) 8,000 $57.73 $461,863.00 115,999 -2.40% view
S 2011-12-07 2011-12-08 16:55:11.0 NEXTERA ENERGY INC NEE DEWHURST MORAY P officer (Vice Chairman & CFO) 20,000 $56.68 $1,133,620.00 234,583 -3.95% view
S 2011-11-30 2011-12-01 09:41:12.0 NEXTERA ENERGY INC NEE DEWHURST MORAY P officer (Vice Chairman & CFO) 20,000 $55.42 $1,108,360.00 234,583 -9.86% view
S 2011-11-21 2011-11-22 10:06:27.0 NEXTERA ENERGY INC NEE DEWHURST MORAY P officer (Vice Chairman & CFO) 20,000 $54.84 $1,096,800.00 234,583 -8.83% view
S 2011-11-16 2011-11-17 10:03:45.0 NEXTERA ENERGY INC NEE DEWHURST MORAY P officer (Vice Chairman & CFO) 20,000 $55.48 $1,109,540.00 234,583 -4.31% view
S 2011-11-09 2011-11-10 10:02:41.0 NEXTERA ENERGY INC NEE DEWHURST MORAY P officer (Vice Chairman & CFO) 20,000 $55.53 $1,110,680.00 234,583 -3.50% view
S 2011-11-04 2011-11-07 09:50:21.0 NEXTERA ENERGY INC NEE Bennett Christopher A officer (EVP-Chf Strat,Pol & Bus Proc) 2,100 $56.34 $118,314.00 35,962 1.03% view
S 2011-10-27 2011-10-28 09:32:38.0 NEXTERA ENERGY INC NEE MCGRATH ROBERT L officer other (EVP Eng, Const. & Corp Svs) 3,726 $57.90 $215,735.00 30,946 9.21% view
S 2011-10-21 2011-10-25 10:44:14.0 NEXTERA ENERGY INC NEE MCGRATH ROBERT L officer other (Ex VP Eng, Const. & Corp Svs) 11,779 $55.90 $658,493.00 31,451 2.15% view
S 2011-09-15 2011-09-16 10:43:17.0 NEXTERA ENERGY INC NEE ROBO JAMES L officer other (President & COO) 8,000 $54.43 $435,452.00 123,999 -0.79% view
S 2011-09-01 2011-09-02 10:39:15.0 NEXTERA ENERGY INC NEE HAY LEWIS III director officer other (Chairman & CEO) 150,000 $57.00 $8,550,000.00 328,913 5.23% view
S 2011-07-01 2011-07-05 10:02:14.0 NEXTERA ENERGY INC NEE OLIVERA ARMANDO J other 20,000 $57.91 $1,158,240.00 71,496 4.32% view
S 2011-06-15 2011-06-17 10:35:03.0 NEXTERA ENERGY INC NEE ROBO JAMES L officer other (President & COO) 8,000 $55.59 $444,704.00 131,999 -2.18% view
S 2011-06-02 2011-06-06 10:42:46.0 NEXTERA ENERGY INC NEE OLIVERA ARMANDO J other 20,000 $56.16 $1,123,250.00 91,496 -3.59% view
S 2011-05-03 2011-05-04 13:46:45.0 NEXTERA ENERGY INC NEE MCGRATH ROBERT L officer other (EVP Eng, Const. & Corp Svs) 1,800 $57.00 $102,600.00 31,451 2.32% view
S 2011-05-03 2011-05-04 13:36:02.0 NEXTERA ENERGY INC NEE Davidson F Mitchell other 7,250 $57.00 $413,250.00 46,863 2.32% view
S 2011-05-02 2011-05-03 10:44:55.0 NEXTERA ENERGY INC NEE HAY LEWIS III director officer other (Chairman & CEO) 87,401 $56.75 $4,960,180.00 328,913 0.96% view
S 2011-04-28 2011-05-02 11:34:11.0 NEXTERA ENERGY INC NEE HAY LEWIS III director officer other (Chairman & CEO) 12,599 $57.00 $718,143.00 414,614 -0.61% view
S 2011-04-04 2011-04-05 10:32:14.0 NEXTERA ENERGY INC NEE Bennett Christopher A officer (EVP-Chf Strat,Pol & Bus Proc) 2,500 $55.82 $139,550.00 38,515 -2.88% view
S 2011-03-15 2011-03-17 14:41:38.0 NEXTERA ENERGY INC NEE ROBO JAMES L officer other (President & COO) 8,000 $54.13 $433,018.00 139,999 -1.83% view
P 2011-03-10 2011-03-14 20:11:36.0 NEXTERA ENERGY INC NEE SCHUPP RUDY E director 200 $55.49 $11,098.00 200 0.92% view
S 2011-03-09 2011-03-10 10:33:40.0 NEXTERA ENERGY INC NEE HAY LEWIS III director officer other (Chairman & CEO) 60,000 $55.28 $3,316,630.00 62,366 -1.31% view
S 2011-03-07 2011-03-08 11:30:34.0 NEXTERA ENERGY INC NEE RODRIGUEZ ANTONIO officer other (EVP-Power Generation) 3,000 $54.86 $164,581.00 7,000 -2.17% view
S 2011-03-07 2011-03-08 11:30:34.0 NEXTERA ENERGY INC NEE RODRIGUEZ ANTONIO officer other (EVP-Power Generation) 7,000 $54.82 $383,747.00 32,703 -2.24% view
S 2011-03-07 2011-03-08 11:09:06.0 NEXTERA ENERGY INC NEE MCGRATH ROBERT L officer other (EVP Eng, Const. & Corp Svs) 1,800 $54.80 $98,640.00 33,251 -2.28% view
S 2011-03-07 2011-03-08 10:48:21.0 NEXTERA ENERGY INC NEE Davidson F Mitchell other 8,626 $54.74 $472,187.00 54,113 -2.39% view
S 2011-02-17 2011-02-22 09:59:54.0 NEXTERA ENERGY INC NEE CUTLER PAUL I officer other (Treasurer) 7,600 $54.23 $412,148.00 36,050 2.60% view
S 2011-02-10 2011-02-11 10:46:21.0 NEXTERA ENERGY INC NEE OLIVERA ARMANDO J other 50,000 $55.01 $2,750,300.00 92,663 -0.63% view
S 2011-02-10 2011-02-11 10:46:21.0 NEXTERA ENERGY INC NEE OLIVERA ARMANDO J other 33,333 $55.04 $1,834,620.00 92,663 -0.57% view
S 2011-01-10 2011-01-11 10:19:56.0 NEXTERA ENERGY INC NEE RODRIGUEZ ANTONIO officer other (Executive VP-Power Generation) 7,000 $53.00 $371,000.00 10,000 -4.19% view
S 2010-12-16 2010-12-20 09:59:14.0 NEXTERA ENERGY INC NEE OLIVERA ARMANDO J other 20,000 $51.00 $1,020,000.00 92,663 -6.18% view
S 2010-12-15 2010-12-16 10:16:36.0 NEXTERA ENERGY INC NEE ROBO JAMES L officer other (President & COO) 8,000 $51.07 $408,550.00 117,485 -6.03% view
S 2010-11-16 2010-11-17 11:26:39.0 NEXTERA ENERGY INC NEE OLIVERA ARMANDO J other 20,000 $53.22 $1,064,320.00 112,663 3.75% view
S 2010-10-01 2010-10-04 14:33:53.0 NEXTERA ENERGY INC NEE RODRIGUEZ ANTONIO officer other (Executive VP-Power Generation) 20,000 $54.17 $1,083,450.00 26,555 0.47% view
S 2010-10-01 2010-10-04 14:33:53.0 NEXTERA ENERGY INC NEE RODRIGUEZ ANTONIO officer other (Executive VP-Power Generation) 30,000 $54.17 $1,625,180.00 26,555 0.47% view
S 2010-09-15 2010-09-16 16:52:49.0 NEXTERA ENERGY INC NEE ROBO JAMES L officer other (President & COO) 8,000 $53.86 $430,904.00 125,485 -2.71% view
S 2010-09-10 2010-09-13 11:50:48.0 NEXTERA ENERGY INC NEE HAY LEWIS III director officer other (Chairman & CEO) 300,000 $55.02 $1.65051E7 329,874 0.18% view
S 2010-09-10 2010-09-13 11:32:53.0 NEXTERA ENERGY INC NEE MCGRATH ROBERT L officer other (Ex VP Eng, Const. & Corp Svs) 30,000 $55.00 $1,650,030.00 25,879 0.15% view
S 2010-09-08 2010-09-10 09:39:41.0 NEXTERA ENERGY INC NEE MCGRATH ROBERT L officer other (Ex VP Eng, Const. & Corp Svs) 15,000 $54.44 $816,615.00 25,879 -0.88% view
S 2010-09-08 2010-09-10 09:39:41.0 NEXTERA ENERGY INC NEE MCGRATH ROBERT L officer other (Ex VP Eng, Const. & Corp Svs) 15,000 $54.44 $816,630.00 25,879 -0.88% view
S 2010-08-24 2010-08-25 15:53:07.0 NEXTERA ENERGY INC NEE OLIVERA ARMANDO J other 16,667 $55.00 $916,685.00 132,663 0.91% view
S 2010-08-02 2010-08-03 09:25:53.0 NEXTERA ENERGY INC NEE RODRIGUEZ ANTONIO officer other (Executive VP-Power Generation) 10,100 $54.00 $545,400.00 26,555 -1.19% view
S 2010-07-27 2010-07-28 14:17:30.0 NEXTERA ENERGY INC NEE RODRIGUEZ ANTONIO officer other (Executive VP-Power Generation) 900 $54.00 $48,600.00 36,655 0.20% view
S 2010-07-09 2010-07-12 10:29:00.0 NEXTERA ENERGY INC NEE ROBO JAMES L officer other (President & COO) 6,112 $51.00 $311,712.00 133,485 -4.86% view
S 2010-07-08 2010-07-12 10:29:00.0 NEXTERA ENERGY INC NEE ROBO JAMES L officer other (President & COO) 143,888 $51.00 $7,338,290.00 133,485 -5.31% view
S 2010-07-07 2010-07-08 13:12:40.0 NEXTERA ENERGY INC NEE Davidson F Mitchell other 8,192 $50.00 $409,600.00 46,376 -7.42% view
S 2010-07-07 2010-07-08 13:12:01.0 NEXTERA ENERGY INC NEE OLIVERA ARMANDO J other 12,500 $50.00 $625,000.00 132,663 -7.42% view
S 2010-06-28 2010-06-29 10:41:49.0 NEXTERA ENERGY INC NEE Davidson F Mitchell other 7,665 $49.28 $377,731.00 54,568 -7.69% view
* An * after P or S in the Buy/Sell column means the transaction was filed by the insider as open market, but it was marked as private transaction by insidercow's proprietary method
Enter Another Stock Symbol: